首页
METAR-TAF:

METAR-TAF

机场 :

聖迪濟耶, 法国

纬度: 48-38N, 经度: 004-54E, 海拔: 139米

当前天气观测

该预报发布于17分钟前的02:30 UTC
风速2节,风向多变
温度 24°C
湿度 65%
气压 1021 hPa
能见度10公里或以上
1500米以下无云,无积雨云

METAR: LFSI 270230Z AUTO VRB02KT CAVOK 24/17 Q1021

时间: 04:47 (02:47 UTC)

预报

该预报发布于47分钟前的02:00 UTC
预报有效从27日的 03点(UTC)到 28日的 03点(UTC)
风速5节,风向东转东北
能见度10公里或以上
1500米以下无云,无积雨云

TAF: LFSI 270200Z 2703/2803 07005KT CAVOK

超过4000个机场的气象观测和天气预报(METAR&TAF报告)。

可查询的气象台以黄色和红色小点在地图上表示。

将鼠标移到小点上方,可查看气象台名称。

然后点击查看天气观测和预报。

如需切换地图:点击带黑十字的绿色按钮放大地图;点击带横线的绿色按钮缩小地图;或者点击绿色箭头查看邻近地区的地图。


METAR-TAF: